sensor_id;sensor_type;location;lat;lon;timestamp;P1;durP1;ratioP1;P2;durP2;ratioP2
5303;SDS011;2674;49.722;10.892;2023-04-03T00:01:09;1.43;;;1.33;;
5303;SDS011;2674;49.722;10.892;2023-04-03T00:03:36;2.00;;;1.47;;
5303;SDS011;2674;49.722;10.892;2023-04-03T00:06:02;2.60;;;1.90;;
5303;SDS011;2674;49.722;10.892;2023-04-03T00:08:30;1.80;;;1.63;;
5303;SDS011;2674;49.722;10.892;2023-04-03T00:10:58;1.60;;;1.50;;
5303;SDS011;2674;49.722;10.892;2023-04-03T00:13:24;1.67;;;1.30;;
5303;SDS011;2674;49.722;10.892;2023-04-03T00:15:50;1.50;;;1.40;;
5303;SDS011;2674;49.722;10.892;2023-04-03T00:18:17;1.40;;;1.30;;
5303;SDS011;2674;49.722;10.892;2023-04-03T00:20:42;1.57;;;1.47;;
5303;SDS011;2674;49.722;10.892;2023-04-03T00:23:09;2.73;;;1.23;;
5303;SDS011;2674;49.722;10.892;2023-04-03T00:25:35;1.80;;;1.67;;
5303;SDS011;2674;49.722;10.892;2023-04-03T00:28:01;1.43;;;1.40;;
5303;SDS011;2674;49.722;10.892;2023-04-03T00:30:28;1.63;;;1.53;;
5303;SDS011;2674;49.722;10.892;2023-04-03T00:32:54;5.73;;;1.90;;
5303;SDS011;2674;49.722;10.892;2023-04-03T00:35:21;1.43;;;1.30;;
5303;SDS011;2674;49.722;10.892;2023-04-03T00:37:47;1.73;;;1.63;;
5303;SDS011;2674;49.722;10.892;2023-04-03T00:40:16;1.67;;;1.57;;
5303;SDS011;2674;49.722;10.892;2023-04-03T00:42:42;1.57;;;1.53;;
5303;SDS011;2674;49.722;10.892;2023-04-03T00:47:52;2.10;;;1.43;;
5303;SDS011;2674;49.722;10.892;2023-04-03T00:50:19;1.90;;;1.80;;
5303;SDS011;2674;49.722;10.892;2023-04-03T00:52:45;4.63;;;2.30;;
5303;SDS011;2674;49.722;10.892;2023-04-03T00:55:13;1.97;;;1.87;;
5303;SDS011;2674;49.722;10.892;2023-04-03T00:57:40;1.57;;;1.30;;
5303;SDS011;2674;49.722;10.892;2023-04-03T01:00:10;1.90;;;1.50;;
5303;SDS011;2674;49.722;10.892;2023-04-03T01:02:38;2.33;;;1.70;;
5303;SDS011;2674;49.722;10.892;2023-04-03T01:05:06;1.43;;;1.33;;
5303;SDS011;2674;49.722;10.892;2023-04-03T01:07:32;3.33;;;1.77;;
5303;SDS011;2674;49.722;10.892;2023-04-03T01:10:03;3.23;;;1.43;;
5303;SDS011;2674;49.722;10.892;2023-04-03T01:12:33;3.30;;;2.27;;
5303;SDS011;2674;49.722;10.892;2023-04-03T01:15:08;1.37;;;1.30;;
5303;SDS011;2674;49.722;10.892;2023-04-03T01:25:37;2.40;;;1.67;;
5303;SDS011;2674;49.722;10.892;2023-04-03T01:28:07;5.10;;;2.10;;
5303;SDS011;2674;49.722;10.892;2023-04-03T01:33:26;4.97;;;1.73;;
5303;SDS011;2674;49.722;10.892;2023-04-03T01:35:52;1.83;;;1.73;;
5303;SDS011;2674;49.722;10.892;2023-04-03T01:38:17;4.00;;;1.80;;
5303;SDS011;2674;49.722;10.892;2023-04-03T01:40:43;1.80;;;1.70;;
5303;SDS011;2674;49.722;10.892;2023-04-03T01:43:09;2.87;;;1.80;;
5303;SDS011;2674;49.722;10.892;2023-04-03T01:45:35;1.83;;;1.20;;
5303;SDS011;2674;49.722;10.892;2023-04-03T01:48:01;2.53;;;1.53;;
5303;SDS011;2674;49.722;10.892;2023-04-03T01:50:27;2.80;;;2.50;;
5303;SDS011;2674;49.722;10.892;2023-04-03T01:52:53;3.20;;;1.80;;
5303;SDS011;2674;49.722;10.892;2023-04-03T01:55:19;4.23;;;2.17;;
5303;SDS011;2674;49.722;10.892;2023-04-03T01:57:44;1.97;;;1.80;;
5303;SDS011;2674;49.722;10.892;2023-04-03T02:00:10;1.80;;;1.70;;
5303;SDS011;2674;49.722;10.892;2023-04-03T02:02:37;4.10;;;2.40;;
5303;SDS011;2674;49.722;10.892;2023-04-03T02:05:03;2.60;;;1.90;;
5303;SDS011;2674;49.722;10.892;2023-04-03T02:07:29;4.07;;;1.77;;
5303;SDS011;2674;49.722;10.892;2023-04-03T02:09:55;4.13;;;2.17;;
5303;SDS011;2674;49.722;10.892;2023-04-03T02:12:21;2.10;;;1.90;;
5303;SDS011;2674;49.722;10.892;2023-04-03T02:14:46;3.33;;;2.20;;
5303;SDS011;2674;49.722;10.892;2023-04-03T02:17:12;2.40;;;1.70;;
5303;SDS011;2674;49.722;10.892;2023-04-03T02:19:38;2.00;;;1.80;;
5303;SDS011;2674;49.722;10.892;2023-04-03T02:22:04;2.27;;;1.70;;
5303;SDS011;2674;49.722;10.892;2023-04-03T02:24:30;4.70;;;1.70;;
5303;SDS011;2674;49.722;10.892;2023-04-03T02:26:56;2.23;;;2.03;;
5303;SDS011;2674;49.722;10.892;2023-04-03T02:29:22;3.37;;;2.20;;
5303;SDS011;2674;49.722;10.892;2023-04-03T02:31:49;2.17;;;1.90;;
5303;SDS011;2674;49.722;10.892;2023-04-03T02:34:15;4.50;;;1.83;;
5303;SDS011;2674;49.722;10.892;2023-04-03T02:36:41;2.77;;;1.93;;
5303;SDS011;2674;49.722;10.892;2023-04-03T02:39:07;4.43;;;2.10;;
5303;SDS011;2674;49.722;10.892;2023-04-03T02:41:34;2.33;;;2.00;;
5303;SDS011;2674;49.722;10.892;2023-04-03T02:44:04;1.80;;;1.70;;
5303;SDS011;2674;49.722;10.892;2023-04-03T02:46:31;3.43;;;1.70;;
5303;SDS011;2674;49.722;10.892;2023-04-03T02:48:57;3.30;;;1.93;;
5303;SDS011;2674;49.722;10.892;2023-04-03T02:51:23;2.90;;;2.33;;
5303;SDS011;2674;49.722;10.892;2023-04-03T02:53:49;2.70;;;2.47;;
5303;SDS011;2674;49.722;10.892;2023-04-03T02:56:15;2.50;;;2.30;;
5303;SDS011;2674;49.722;10.892;2023-04-03T02:58:43;6.63;;;2.67;;
5303;SDS011;2674;49.722;10.892;2023-04-03T03:01:09;2.07;;;1.90;;
5303;SDS011;2674;49.722;10.892;2023-04-03T03:03:35;4.73;;;2.40;;
5303;SDS011;2674;49.722;10.892;2023-04-03T03:06:06;2.37;;;1.73;;
5303;SDS011;2674;49.722;10.892;2023-04-03T03:08:33;3.17;;;1.80;;
5303;SDS011;2674;49.722;10.892;2023-04-03T03:11:01;4.80;;;2.20;;
5303;SDS011;2674;49.722;10.892;2023-04-03T03:13:27;5.33;;;2.10;;
5303;SDS011;2674;49.722;10.892;2023-04-03T03:15:53;7.70;;;2.13;;
5303;SDS011;2674;49.722;10.892;2023-04-03T03:18:19;5.60;;;2.13;;
5303;SDS011;2674;49.722;10.892;2023-04-03T03:20:44;2.33;;;2.13;;
5303;SDS011;2674;49.722;10.892;2023-04-03T03:23:10;3.17;;;2.30;;
5303;SDS011;2674;49.722;10.892;2023-04-03T03:25:39;10.50;;;2.50;;
5303;SDS011;2674;49.722;10.892;2023-04-03T03:28:05;2.10;;;1.83;;
5303;SDS011;2674;49.722;10.892;2023-04-03T03:30:31;4.50;;;2.00;;
5303;SDS011;2674;49.722;10.892;2023-04-03T03:32:58;2.37;;;2.10;;
5303;SDS011;2674;49.722;10.892;2023-04-03T03:35:24;2.10;;;2.00;;
5303;SDS011;2674;49.722;10.892;2023-04-03T03:37:49;7.57;;;2.80;;
5303;SDS011;2674;49.722;10.892;2023-04-03T03:40:16;2.70;;;2.10;;
5303;SDS011;2674;49.722;10.892;2023-04-03T03:42:42;4.70;;;1.90;;
5303;SDS011;2674;49.722;10.892;2023-04-03T03:45:08;3.57;;;2.10;;
5303;SDS011;2674;49.722;10.892;2023-04-03T03:47:35;6.40;;;2.50;;
5303;SDS011;2674;49.722;10.892;2023-04-03T03:50:01;7.13;;;2.47;;
5303;SDS011;2674;49.722;10.892;2023-04-03T03:52:27;2.73;;;2.53;;
5303;SDS011;2674;49.722;10.892;2023-04-03T03:54:53;4.20;;;2.70;;
5303;SDS011;2674;49.722;10.892;2023-04-03T03:57:18;2.30;;;2.13;;
5303;SDS011;2674;49.722;10.892;2023-04-03T03:59:44;4.10;;;2.63;;
5303;SDS011;2674;49.722;10.892;2023-04-03T04:02:11;5.37;;;2.70;;
5303;SDS011;2674;49.722;10.892;2023-04-03T04:04:37;2.83;;;2.50;;
5303;SDS011;2674;49.722;10.892;2023-04-03T04:07:02;2.63;;;1.97;;
5303;SDS011;2674;49.722;10.892;2023-04-03T04:09:29;3.47;;;2.50;;
5303;SDS011;2674;49.722;10.892;2023-04-03T04:11:55;4.00;;;2.30;;
5303;SDS011;2674;49.722;10.892;2023-04-03T04:14:20;7.93;;;3.60;;
5303;SDS011;2674;49.722;10.892;2023-04-03T04:16:46;5.67;;;3.07;;
5303;SDS011;2674;49.722;10.892;2023-04-03T04:19:13;5.53;;;2.37;;
5303;SDS011;2674;49.722;10.892;2023-04-03T04:21:39;3.10;;;2.70;;
5303;SDS011;2674;49.722;10.892;2023-04-03T04:24:06;3.90;;;2.60;;
5303;SDS011;2674;49.722;10.892;2023-04-03T04:26:33;2.40;;;2.30;;
5303;SDS011;2674;49.722;10.892;2023-04-03T04:28:59;4.20;;;2.67;;
5303;SDS011;2674;49.722;10.892;2023-04-03T04:31:26;8.23;;;2.63;;
5303;SDS011;2674;49.722;10.892;2023-04-03T04:33:52;4.30;;;2.47;;
5303;SDS011;2674;49.722;10.892;2023-04-03T04:36:18;5.60;;;2.40;;
5303;SDS011;2674;49.722;10.892;2023-04-03T04:38:44;3.40;;;3.00;;
5303;SDS011;2674;49.722;10.892;2023-04-03T04:41:09;5.03;;;2.50;;
5303;SDS011;2674;49.722;10.892;2023-04-03T04:43:35;2.50;;;2.30;;
5303;SDS011;2674;49.722;10.892;2023-04-03T04:46:02;7.37;;;3.00;;
5303;SDS011;2674;49.722;10.892;2023-04-03T04:48:29;3.60;;;2.20;;
5303;SDS011;2674;49.722;10.892;2023-04-03T04:50:55;8.30;;;2.90;;
5303;SDS011;2674;49.722;10.892;2023-04-03T04:53:21;2.90;;;2.70;;
5303;SDS011;2674;49.722;10.892;2023-04-03T04:55:47;4.60;;;3.10;;
5303;SDS011;2674;49.722;10.892;2023-04-03T04:58:13;10.90;;;3.30;;
5303;SDS011;2674;49.722;10.892;2023-04-03T05:00:39;3.70;;;2.57;;
5303;SDS011;2674;49.722;10.892;2023-04-03T05:03:05;3.43;;;3.00;;
5303;SDS011;2674;49.722;10.892;2023-04-03T05:05:30;4.40;;;2.57;;
5303;SDS011;2674;49.722;10.892;2023-04-03T05:07:56;3.57;;;2.20;;
5303;SDS011;2674;49.722;10.892;2023-04-03T05:10:22;4.03;;;2.30;;
5303;SDS011;2674;49.722;10.892;2023-04-03T05:12:48;4.70;;;2.43;;
5303;SDS011;2674;49.722;10.892;2023-04-03T05:15:15;3.50;;;2.47;;
5303;SDS011;2674;49.722;10.892;2023-04-03T05:17:41;5.83;;;2.37;;
5303;SDS011;2674;49.722;10.892;2023-04-03T05:20:07;2.53;;;2.33;;
5303;SDS011;2674;49.722;10.892;2023-04-03T05:22:33;5.03;;;2.60;;
5303;SDS011;2674;49.722;10.892;2023-04-03T05:24:59;4.97;;;2.40;;
5303;SDS011;2674;49.722;10.892;2023-04-03T05:27:25;8.53;;;2.77;;
5303;SDS011;2674;49.722;10.892;2023-04-03T05:29:53;3.47;;;1.80;;
5303;SDS011;2674;49.722;10.892;2023-04-03T05:32:20;2.63;;;2.27;;
5303;SDS011;2674;49.722;10.892;2023-04-03T05:34:48;3.33;;;2.83;;
5303;SDS011;2674;49.722;10.892;2023-04-03T05:37:14;3.67;;;2.33;;
5303;SDS011;2674;49.722;10.892;2023-04-03T05:39:40;3.20;;;2.50;;
5303;SDS011;2674;49.722;10.892;2023-04-03T05:42:06;3.63;;;2.27;;
5303;SDS011;2674;49.722;10.892;2023-04-03T05:44:32;3.30;;;2.20;;
5303;SDS011;2674;49.722;10.892;2023-04-03T05:46:58;4.57;;;2.20;;
5303;SDS011;2674;49.722;10.892;2023-04-03T05:49:24;6.23;;;2.53;;
5303;SDS011;2674;49.722;10.892;2023-04-03T05:51:53;6.77;;;2.90;;
5303;SDS011;2674;49.722;10.892;2023-04-03T05:54:21;6.73;;;3.00;;
5303;SDS011;2674;49.722;10.892;2023-04-03T05:56:49;3.77;;;2.50;;
5303;SDS011;2674;49.722;10.892;2023-04-03T05:59:16;2.97;;;2.30;;
5303;SDS011;2674;49.722;10.892;2023-04-03T06:01:43;6.57;;;2.57;;
5303;SDS011;2674;49.722;10.892;2023-04-03T06:04:09;4.00;;;2.40;;
5303;SDS011;2674;49.722;10.892;2023-04-03T06:06:45;10.20;;;2.93;;
5303;SDS011;2674;49.722;10.892;2023-04-03T06:09:13;7.70;;;2.37;;
5303;SDS011;2674;49.722;10.892;2023-04-03T06:11:40;3.80;;;2.40;;
5303;SDS011;2674;49.722;10.892;2023-04-03T06:14:07;5.77;;;2.50;;
5303;SDS011;2674;49.722;10.892;2023-04-03T06:16:33;2.60;;;2.40;;
5303;SDS011;2674;49.722;10.892;2023-04-03T06:18:59;4.10;;;2.20;;
5303;SDS011;2674;49.722;10.892;2023-04-03T06:21:25;2.50;;;2.30;;
5303;SDS011;2674;49.722;10.892;2023-04-03T06:23:51;5.70;;;2.63;;
5303;SDS011;2674;49.722;10.892;2023-04-03T06:26:17;4.40;;;2.50;;
5303;SDS011;2674;49.722;10.892;2023-04-03T06:28:43;3.80;;;3.20;;
5303;SDS011;2674;49.722;10.892;2023-04-03T06:31:09;6.87;;;2.67;;
5303;SDS011;2674;49.722;10.892;2023-04-03T06:33:35;6.83;;;3.67;;
5303;SDS011;2674;49.722;10.892;2023-04-03T06:36:03;4.80;;;2.67;;
5303;SDS011;2674;49.722;10.892;2023-04-03T06:38:30;3.70;;;2.70;;
5303;SDS011;2674;49.722;10.892;2023-04-03T06:40:56;3.43;;;2.50;;
5303;SDS011;2674;49.722;10.892;2023-04-03T06:43:22;2.63;;;2.40;;
5303;SDS011;2674;49.722;10.892;2023-04-03T06:45:49;5.77;;;2.40;;
5303;SDS011;2674;49.722;10.892;2023-04-03T06:48:15;4.93;;;3.53;;
5303;SDS011;2674;49.722;10.892;2023-04-03T06:50:41;5.23;;;3.10;;
5303;SDS011;2674;49.722;10.892;2023-04-03T06:53:07;5.37;;;3.03;;
5303;SDS011;2674;49.722;10.892;2023-04-03T06:55:33;4.00;;;3.47;;
5303;SDS011;2674;49.722;10.892;2023-04-03T06:57:59;9.00;;;3.70;;
5303;SDS011;2674;49.722;10.892;2023-04-03T07:00:25;3.23;;;2.83;;
5303;SDS011;2674;49.722;10.892;2023-04-03T07:02:51;7.50;;;2.67;;
5303;SDS011;2674;49.722;10.892;2023-04-03T07:05:17;13.07;;;3.40;;
5303;SDS011;2674;49.722;10.892;2023-04-03T07:07:44;8.80;;;3.17;;
5303;SDS011;2674;49.722;10.892;2023-04-03T07:10:10;5.60;;;2.57;;
5303;SDS011;2674;49.722;10.892;2023-04-03T07:12:36;6.07;;;2.87;;
5303;SDS011;2674;49.722;10.892;2023-04-03T07:15:03;8.43;;;2.90;;
5303;SDS011;2674;49.722;10.892;2023-04-03T07:17:30;4.77;;;3.30;;
5303;SDS011;2674;49.722;10.892;2023-04-03T07:19:57;5.47;;;3.07;;
5303;SDS011;2674;49.722;10.892;2023-04-03T07:22:22;5.73;;;2.60;;
5303;SDS011;2674;49.722;10.892;2023-04-03T07:24:48;3.03;;;2.63;;
5303;SDS011;2674;49.722;10.892;2023-04-03T07:27:14;5.53;;;3.37;;
5303;SDS011;2674;49.722;10.892;2023-04-03T07:29:40;8.60;;;3.63;;
5303;SDS011;2674;49.722;10.892;2023-04-03T07:32:06;5.83;;;2.60;;
5303;SDS011;2674;49.722;10.892;2023-04-03T07:34:32;4.50;;;2.87;;
5303;SDS011;2674;49.722;10.892;2023-04-03T07:36:58;5.10;;;3.20;;
5303;SDS011;2674;49.722;10.892;2023-04-03T07:39:25;3.67;;;2.70;;
5303;SDS011;2674;49.722;10.892;2023-04-03T07:41:51;12.33;;;3.93;;
5303;SDS011;2674;49.722;10.892;2023-04-03T07:44:17;4.90;;;2.80;;
5303;SDS011;2674;49.722;10.892;2023-04-03T07:46:43;4.67;;;2.90;;
5303;SDS011;2674;49.722;10.892;2023-04-03T07:49:09;3.67;;;3.37;;
5303;SDS011;2674;49.722;10.892;2023-04-03T07:51:35;7.07;;;3.17;;
5303;SDS011;2674;49.722;10.892;2023-04-03T07:54:00;7.90;;;3.20;;
5303;SDS011;2674;49.722;10.892;2023-04-03T07:56:26;4.90;;;2.50;;
5303;SDS011;2674;49.722;10.892;2023-04-03T07:58:52;2.70;;;2.30;;
5303;SDS011;2674;49.722;10.892;2023-04-03T08:01:18;5.70;;;2.70;;
5303;SDS011;2674;49.722;10.892;2023-04-03T08:03:50;5.77;;;2.97;;
5303;SDS011;2674;49.722;10.892;2023-04-03T08:06:18;2.53;;;2.33;;
5303;SDS011;2674;49.722;10.892;2023-04-03T08:08:44;4.47;;;3.00;;
5303;SDS011;2674;49.722;10.892;2023-04-03T08:11:11;3.70;;;3.00;;
5303;SDS011;2674;49.722;10.892;2023-04-03T08:13:36;3.53;;;2.90;;
5303;SDS011;2674;49.722;10.892;2023-04-03T08:16:10;6.53;;;2.47;;
5303;SDS011;2674;49.722;10.892;2023-04-03T08:18:42;10.13;;;3.43;;
5303;SDS011;2674;49.722;10.892;2023-04-03T08:21:09;6.60;;;3.37;;
5303;SDS011;2674;49.722;10.892;2023-04-03T08:23:36;5.67;;;2.57;;
5303;SDS011;2674;49.722;10.892;2023-04-03T08:26:06;2.83;;;2.63;;
5303;SDS011;2674;49.722;10.892;2023-04-03T08:28:39;6.80;;;3.17;;
5303;SDS011;2674;49.722;10.892;2023-04-03T08:31:07;5.70;;;2.50;;
5303;SDS011;2674;49.722;10.892;2023-04-03T08:33:36;4.23;;;2.43;;
5303;SDS011;2674;49.722;10.892;2023-04-03T08:36:06;4.43;;;2.50;;
5303;SDS011;2674;49.722;10.892;2023-04-03T08:38:40;8.27;;;2.93;;
5303;SDS011;2674;49.722;10.892;2023-04-03T08:43:56;4.80;;;2.67;;
5303;SDS011;2674;49.722;10.892;2023-04-03T08:46:44;6.33;;;3.30;;
5303;SDS011;2674;49.722;10.892;2023-04-03T08:49:31;3.27;;;2.80;;
5303;SDS011;2674;49.722;10.892;2023-04-03T08:52:02;4.28;;;1.90;;
5303;SDS011;2674;49.722;10.892;2023-04-03T08:54:35;4.63;;;1.97;;
5303;SDS011;2674;49.722;10.892;2023-04-03T08:57:20;7.73;;;2.27;;
5303;SDS011;2674;49.722;10.892;2023-04-03T08:59:56;2.20;;;1.50;;
5303;SDS011;2674;49.722;10.892;2023-04-03T09:02:37;2.80;;;2.47;;
5303;SDS011;2674;49.722;10.892;2023-04-03T09:05:11;2.67;;;1.97;;
5303;SDS011;2674;49.722;10.892;2023-04-03T09:07:46;6.30;;;2.30;;
5303;SDS011;2674;49.722;10.892;2023-04-03T09:10:15;3.37;;;1.77;;
5303;SDS011;2674;49.722;10.892;2023-04-03T09:13:08;3.57;;;2.10;;
5303;SDS011;2674;49.722;10.892;2023-04-03T09:15:47;2.93;;;1.93;;
5303;SDS011;2674;49.722;10.892;2023-04-03T09:23:17;2.40;;;1.33;;
5303;SDS011;2674;49.722;10.892;2023-04-03T09:25:43;2.00;;;1.70;;
5303;SDS011;2674;49.722;10.892;2023-04-03T09:28:10;2.63;;;1.63;;
5303;SDS011;2674;49.722;10.892;2023-04-03T09:30:37;3.93;;;1.90;;
5303;SDS011;2674;49.722;10.892;2023-04-03T09:33:03;2.83;;;1.70;;
5303;SDS011;2674;49.722;10.892;2023-04-03T09:35:31;3.17;;;2.20;;
5303;SDS011;2674;49.722;10.892;2023-04-03T09:38:00;3.63;;;2.10;;
5303;SDS011;2674;49.722;10.892;2023-04-03T09:40:41;1.90;;;1.80;;
5303;SDS011;2674;49.722;10.892;2023-04-03T09:46:42;2.97;;;1.80;;
5303;SDS011;2674;49.722;10.892;2023-04-03T09:49:04;2.97;;;1.80;;
5303;SDS011;2674;49.722;10.892;2023-04-03T09:51:30;3.20;;;2.17;;
5303;SDS011;2674;49.722;10.892;2023-04-03T09:53:57;3.17;;;1.50;;
5303;SDS011;2674;49.722;10.892;2023-04-03T09:56:25;3.63;;;1.50;;
5303;SDS011;2674;49.722;10.892;2023-04-03T10:01:31;5.07;;;1.80;;
5303;SDS011;2674;49.722;10.892;2023-04-03T10:04:15;3.80;;;2.23;;
5303;SDS011;2674;49.722;10.892;2023-04-03T10:06:47;8.90;;;1.87;;
5303;SDS011;2674;49.722;10.892;2023-04-03T10:09:25;2.20;;;1.50;;
5303;SDS011;2674;49.722;10.892;2023-04-03T10:22:40;2.30;;;2.07;;
5303;SDS011;2674;49.722;10.892;2023-04-03T10:25:40;1.50;;;1.40;;
5303;SDS011;2674;49.722;10.892;2023-04-03T10:31:47;2.73;;;1.70;;
5303;SDS011;2674;49.722;10.892;2023-04-03T10:37:34;2.20;;;1.50;;
5303;SDS011;2674;49.722;10.892;2023-04-03T10:40:21;1.63;;;1.13;;
5303;SDS011;2674;49.722;10.892;2023-04-03T10:51:45;4.23;;;1.80;;
5303;SDS011;2674;49.722;10.892;2023-04-03T10:54:35;1.90;;;1.80;;
5303;SDS011;2674;49.722;10.892;2023-04-03T10:57:21;2.40;;;1.97;;
5303;SDS011;2674;49.722;10.892;2023-04-03T10:59:55;1.53;;;1.43;;
5303;SDS011;2674;49.722;10.892;2023-04-03T11:05:50;2.90;;;1.73;;
5303;SDS011;2674;49.722;10.892;2023-04-03T11:11:24;1.53;;;1.30;;
5303;SDS011;2674;49.722;10.892;2023-04-03T11:19:52;5.70;;;1.83;;
5303;SDS011;2674;49.722;10.892;2023-04-03T11:22:43;1.37;;;1.17;;
5303;SDS011;2674;49.722;10.892;2023-04-03T11:25:36;1.40;;;1.30;;
5303;SDS011;2674;49.722;10.892;2023-04-03T11:28:13;1.60;;;1.50;;
5303;SDS011;2674;49.722;10.892;2023-04-03T11:39:30;3.33;;;1.77;;
5303;SDS011;2674;49.722;10.892;2023-04-03T11:45:00;1.43;;;1.30;;
5303;SDS011;2674;49.722;10.892;2023-04-03T11:51:37;1.20;;;1.10;;
5303;SDS011;2674;49.722;10.892;2023-04-03T12:03:30;10.13;;;1.93;;
5303;SDS011;2674;49.722;10.892;2023-04-03T12:11:31;1.87;;;1.77;;
5303;SDS011;2674;49.722;10.892;2023-04-03T12:14:14;1.50;;;1.50;;
5303;SDS011;2674;49.722;10.892;2023-04-03T12:16:48;2.73;;;1.97;;
5303;SDS011;2674;49.722;10.892;2023-04-03T12:24:46;1.93;;;1.70;;
5303;SDS011;2674;49.722;10.892;2023-04-03T12:27:38;1.80;;;1.70;;
5303;SDS011;2674;49.722;10.892;2023-04-03T12:30:26;1.87;;;1.77;;
5303;SDS011;2674;49.722;10.892;2023-04-03T12:35:58;2.60;;;1.60;;
5303;SDS011;2674;49.722;10.892;2023-04-03T12:39:00;1.97;;;1.87;;
5303;SDS011;2674;49.722;10.892;2023-04-03T12:41:58;1.80;;;1.70;;
5303;SDS011;2674;49.722;10.892;2023-04-03T12:44:57;1.63;;;1.20;;
5303;SDS011;2674;49.722;10.892;2023-04-03T12:47:38;1.27;;;1.17;;
5303;SDS011;2674;49.722;10.892;2023-04-03T12:50:34;2.73;;;1.50;;
5303;SDS011;2674;49.722;10.892;2023-04-03T12:53:05;5.53;;;1.87;;
5303;SDS011;2674;49.722;10.892;2023-04-03T12:55:39;3.73;;;1.70;;
5303;SDS011;2674;49.722;10.892;2023-04-03T12:58:25;1.80;;;1.80;;
5303;SDS011;2674;49.722;10.892;2023-04-03T13:01:08;2.53;;;2.27;;
5303;SDS011;2674;49.722;10.892;2023-04-03T13:03:40;2.67;;;2.03;;
5303;SDS011;2674;49.722;10.892;2023-04-03T13:06:44;1.57;;;1.50;;
5303;SDS011;2674;49.722;10.892;2023-04-03T13:11:49;1.40;;;1.40;;
5303;SDS011;2674;49.722;10.892;2023-04-03T13:14:22;2.00;;;1.90;;
5303;SDS011;2674;49.722;10.892;2023-04-03T13:17:17;2.00;;;1.90;;
5303;SDS011;2674;49.722;10.892;2023-04-03T13:19:55;1.90;;;1.80;;
5303;SDS011;2674;49.722;10.892;2023-04-03T13:25:31;1.33;;;1.23;;
5303;SDS011;2674;49.722;10.892;2023-04-03T13:28:05;2.20;;;2.00;;
5303;SDS011;2674;49.722;10.892;2023-04-03T13:30:34;1.50;;;1.40;;
5303;SDS011;2674;49.722;10.892;2023-04-03T13:33:05;2.10;;;1.90;;
5303;SDS011;2674;49.722;10.892;2023-04-03T13:35:56;2.00;;;1.67;;
5303;SDS011;2674;49.722;10.892;2023-04-03T13:38:41;4.20;;;1.60;;
5303;SDS011;2674;49.722;10.892;2023-04-03T13:44:17;2.97;;;2.67;;
5303;SDS011;2674;49.722;10.892;2023-04-03T13:46:44;1.63;;;1.50;;
5303;SDS011;2674;49.722;10.892;2023-04-03T13:52:20;1.90;;;1.80;;
5303;SDS011;2674;49.722;10.892;2023-04-03T13:58:00;1.37;;;1.33;;
5303;SDS011;2674;49.722;10.892;2023-04-03T14:03:30;4.20;;;1.80;;
5303;SDS011;2674;49.722;10.892;2023-04-03T14:05:59;2.50;;;1.73;;
5303;SDS011;2674;49.722;10.892;2023-04-03T14:08:34;1.53;;;1.43;;
5303;SDS011;2674;49.722;10.892;2023-04-03T14:11:01;2.10;;;1.90;;
5303;SDS011;2674;49.722;10.892;2023-04-03T14:13:32;2.10;;;1.67;;
5303;SDS011;2674;49.722;10.892;2023-04-03T14:16:23;2.17;;;2.00;;
5303;SDS011;2674;49.722;10.892;2023-04-03T14:19:14;4.07;;;1.50;;
5303;SDS011;2674;49.722;10.892;2023-04-03T14:22:21;2.30;;;1.57;;
5303;SDS011;2674;49.722;10.892;2023-04-03T14:24:54;2.00;;;1.90;;
5303;SDS011;2674;49.722;10.892;2023-04-03T14:27:24;2.03;;;1.40;;
5303;SDS011;2674;49.722;10.892;2023-04-03T14:29:57;1.60;;;1.50;;
5303;SDS011;2674;49.722;10.892;2023-04-03T14:32:29;1.93;;;1.70;;
5303;SDS011;2674;49.722;10.892;2023-04-03T14:35:12;2.00;;;1.60;;
5303;SDS011;2674;49.722;10.892;2023-04-03T14:38:09;2.30;;;1.77;;
5303;SDS011;2674;49.722;10.892;2023-04-03T14:40:57;6.07;;;1.60;;
5303;SDS011;2674;49.722;10.892;2023-04-03T14:43:23;3.90;;;1.50;;
5303;SDS011;2674;49.722;10.892;2023-04-03T14:45:54;2.80;;;1.67;;
5303;SDS011;2674;49.722;10.892;2023-04-03T14:48:27;6.30;;;1.60;;
5303;SDS011;2674;49.722;10.892;2023-04-03T14:51:00;1.90;;;1.80;;
5303;SDS011;2674;49.722;10.892;2023-04-03T14:53:32;1.87;;;1.30;;
5303;SDS011;2674;49.722;10.892;2023-04-03T14:56:08;3.90;;;1.80;;
5303;SDS011;2674;49.722;10.892;2023-04-03T14:58:43;1.60;;;1.50;;
5303;SDS011;2674;49.722;10.892;2023-04-03T15:01:13;2.77;;;1.80;;
5303;SDS011;2674;49.722;10.892;2023-04-03T15:03:54;4.83;;;1.67;;
5303;SDS011;2674;49.722;10.892;2023-04-03T15:06:32;2.03;;;1.43;;
5303;SDS011;2674;49.722;10.892;2023-04-03T15:09:03;3.63;;;1.10;;
5303;SDS011;2674;49.722;10.892;2023-04-03T15:11:30;1.60;;;1.50;;
5303;SDS011;2674;49.722;10.892;2023-04-03T15:13:57;3.90;;;2.13;;
5303;SDS011;2674;49.722;10.892;2023-04-03T15:16:26;2.40;;;1.30;;
5303;SDS011;2674;49.722;10.892;2023-04-03T15:19:04;1.53;;;1.47;;
5303;SDS011;2674;49.722;10.892;2023-04-03T15:21:36;2.40;;;1.63;;
5303;SDS011;2674;49.722;10.892;2023-04-03T15:24:13;8.43;;;1.47;;
5303;SDS011;2674;49.722;10.892;2023-04-03T15:26:47;4.73;;;1.80;;
5303;SDS011;2674;49.722;10.892;2023-04-03T15:29:14;2.40;;;1.53;;
5303;SDS011;2674;49.722;10.892;2023-04-03T15:31:52;4.60;;;1.10;;
5303;SDS011;2674;49.722;10.892;2023-04-03T15:34:36;1.57;;;1.47;;
5303;SDS011;2674;49.722;10.892;2023-04-03T15:37:19;2.37;;;1.40;;
5303;SDS011;2674;49.722;10.892;2023-04-03T15:39:53;1.80;;;1.20;;
5303;SDS011;2674;49.722;10.892;2023-04-03T15:42:35;1.80;;;1.20;;
5303;SDS011;2674;49.722;10.892;2023-04-03T15:45:07;2.05;;;1.27;;
5303;SDS011;2674;49.722;10.892;2023-04-03T15:47:49;2.43;;;2.20;;
5303;SDS011;2674;49.722;10.892;2023-04-03T15:50:16;1.40;;;1.00;;
5303;SDS011;2674;49.722;10.892;2023-04-03T15:52:42;1.30;;;1.20;;
5303;SDS011;2674;49.722;10.892;2023-04-03T15:55:08;3.50;;;1.70;;
5303;SDS011;2674;49.722;10.892;2023-04-03T15:57:44;2.40;;;1.20;;
5303;SDS011;2674;49.722;10.892;2023-04-03T16:00:17;1.30;;;1.13;;
5303;SDS011;2674;49.722;10.892;2023-04-03T16:02:46;1.50;;;1.40;;
5303;SDS011;2674;49.722;10.892;2023-04-03T16:05:22;2.17;;;1.40;;
5303;SDS011;2674;49.722;10.892;2023-04-03T16:07:54;1.43;;;1.33;;
5303;SDS011;2674;49.722;10.892;2023-04-03T16:10:33;3.30;;;1.27;;
5303;SDS011;2674;49.722;10.892;2023-04-03T16:13:20;2.07;;;0.97;;
5303;SDS011;2674;49.722;10.892;2023-04-03T16:15:49;1.40;;;1.20;;
5303;SDS011;2674;49.722;10.892;2023-04-03T16:18:15;1.97;;;1.50;;
5303;SDS011;2674;49.722;10.892;2023-04-03T16:21:06;2.00;;;1.33;;
5303;SDS011;2674;49.722;10.892;2023-04-03T16:23:34;3.27;;;2.33;;
5303;SDS011;2674;49.722;10.892;2023-04-03T16:26:03;1.70;;;1.60;;
5303;SDS011;2674;49.722;10.892;2023-04-03T16:28:50;1.90;;;1.20;;
5303;SDS011;2674;49.722;10.892;2023-04-03T16:31:19;1.20;;;1.10;;
5303;SDS011;2674;49.722;10.892;2023-04-03T16:33:54;1.30;;;1.20;;
5303;SDS011;2674;49.722;10.892;2023-04-03T16:36:21;1.90;;;1.23;;
5303;SDS011;2674;49.722;10.892;2023-04-03T16:38:57;1.10;;;1.10;;
5303;SDS011;2674;49.722;10.892;2023-04-03T16:41:25;2.23;;;1.07;;
5303;SDS011;2674;49.722;10.892;2023-04-03T16:44:09;3.93;;;1.17;;
5303;SDS011;2674;49.722;10.892;2023-04-03T16:46:44;1.83;;;1.07;;
5303;SDS011;2674;49.722;10.892;2023-04-03T16:49:18;4.73;;;2.00;;
5303;SDS011;2674;49.722;10.892;2023-04-03T16:51:44;2.10;;;1.60;;
5303;SDS011;2674;49.722;10.892;2023-04-03T16:54:12;2.00;;;1.10;;
5303;SDS011;2674;49.722;10.892;2023-04-03T16:56:42;4.87;;;2.03;;
5303;SDS011;2674;49.722;10.892;2023-04-03T16:59:08;5.17;;;1.77;;
5303;SDS011;2674;49.722;10.892;2023-04-03T17:01:42;1.60;;;1.23;;
5303;SDS011;2674;49.722;10.892;2023-04-03T17:04:16;2.40;;;1.10;;
5303;SDS011;2674;49.722;10.892;2023-04-03T17:06:45;1.27;;;1.17;;
5303;SDS011;2674;49.722;10.892;2023-04-03T17:09:16;1.20;;;1.10;;
5303;SDS011;2674;49.722;10.892;2023-04-03T17:11:46;3.40;;;1.03;;
5303;SDS011;2674;49.722;10.892;2023-04-03T17:14:19;5.17;;;1.83;;
5303;SDS011;2674;49.722;10.892;2023-04-03T17:16:45;3.37;;;0.93;;
5303;SDS011;2674;49.722;10.892;2023-04-03T17:19:13;5.60;;;1.70;;
5303;SDS011;2674;49.722;10.892;2023-04-03T17:21:43;3.27;;;1.10;;
5303;SDS011;2674;49.722;10.892;2023-04-03T17:24:27;1.30;;;1.20;;